SKBQ Airport Information

Runway Information
Runway 05 Length 9842 ft width 148 ft
Elevation 98 ft Threshold 0 ft Heading 40
Runway 23 Length 9842 ft Width 148 ft
Elevation 98 ft Threshold 0 ft Heading 220
Airport Frequencies
Type APP Name BARRANQUIL Frequency 119.1 MHZ
Type ATIS Name ATIS Frequency 113.7 MHZ
Type GND Name GND Frequency 121.9 MHZ
Type RDO Name BARRANQUIL Frequency 348.8 MHZ
Type TWR Name TWR Frequency 118.1 MHZ
Airport Navaids
Type NDB Name Barranquilla Frequency 264 KHZ
Type VOR-DME Name Barranquilla Frequency 113700 KHZ
Airport Weather Information & NOTAM
ADDS - METARS form results

(2232 UTC 20 June 2018)
 
METAR text: SKBQ 202200Z 33006KT 9999 SCT015 SCT080 29/25 A2986
Conditions at: SKBQ (BARRANQUILLA/ERN, CO) observed 2200 UTC 20 June 2018
Temperature: 29.0°C (84°F)
Dewpoint: 25.0°C (77°F) [RH = 79%]
Pressure (altimeter): 29.86 inches Hg (1011.3 mb)
Winds: from the NNW (330 degrees) at 7 MPH (6 knots; 3.1 m/s)
Visibility: 6 or more miles (10+ km)
Ceiling: at least 12,000 feet AGL
Clouds: scattered clouds at 1500 feet AGL
scattered clouds at 8000 feet AGL
Weather: no significant weather observed at this time